Time;durP1;ratioP1;P1;durP2;ratioP2;P2;SDS_P1;SDS_P2;PMS_P1;PMS_P2;Temp;Humidity;BMP_temperature;BMP_pressure;BME280_temperature;BME280_humidity;BME280_pressure;Samples;Min_cycle;Max_cycle;Signal;HPM_P1;HPM_P2
2023/01/18 00:00:49;;;;;;;6.43;0.80;;;;;;;;;;5071933;28;20055;-61
2023/01/18 00:03:15;;;;;;;2.25;1.08;;;;;;;;;;5071814;28;20552;-61
2023/01/18 00:05:42;;;;;;;2.50;0.82;;;;;;;;;;5071747;28;20063;-60
2023/01/18 00:08:12;;;;;;;3.70;1.95;;;;;;;;;;5071849;28;20024;-60
2023/01/18 00:10:39;;;;;;;4.10;1.13;;;;;;;;;;5071477;28;20025;-61
2023/01/18 00:13:05;;;;;;;3.10;1.35;;;;;;;;;;5071872;28;20474;-61
2023/01/18 00:15:32;;;;;;;2.15;0.93;;;;;;;;;;5071609;28;20546;-60
2023/01/18 00:17:58;;;;;;;5.45;1.20;;;;;;;;;;5071841;28;20021;-60
2023/01/18 00:20:26;;;;;;;7.40;1.85;;;;;;;;;;5071437;28;20031;-60
2023/01/18 00:22:52;;;;;;;5.90;1.50;;;;;;;;;;5071907;28;20024;-61
2023/01/18 00:25:19;;;;;;;4.20;1.23;;;;;;;;;;5071428;28;20079;-61
2023/01/18 00:27:49;;;;;;;8.20;1.55;;;;;;;;;;5071543;28;20082;-61
2023/01/18 00:30:16;;;;;;;3.30;1.30;;;;;;;;;;5071682;28;20040;-61
2023/01/18 00:32:46;;;;;;;4.47;2.03;;;;;;;;;;5071389;28;20021;-61
2023/01/18 00:35:12;;;;;;;8.73;1.70;;;;;;;;;;5071348;28;20127;-61
2023/01/18 00:37:38;;;;;;;5.90;1.50;;;;;;;;;;5071230;28;20029;-61
2023/01/18 00:40:05;;;;;;;5.10;1.83;;;;;;;;;;5071570;28;20505;-61
2023/01/18 00:45:16;;;;;;;9.57;3.05;;;;;;;;;;5072534;28;20032;-61
2023/01/18 00:47:42;;;;;;;8.25;2.60;;;;;;;;;;5074873;28;20028;-60
2023/01/18 00:50:11;;;;;;;8.90;2.40;;;;;;;;;;5074972;28;20032;-61
2023/01/18 00:52:37;;;;;;;4.25;2.40;;;;;;;;;;5074411;28;20047;-60
2023/01/18 00:55:06;;;;;;;5.75;2.50;;;;;;;;;;5074921;28;20028;-61
2023/01/18 00:57:32;;;;;;;12.07;2.65;;;;;;;;;;5074713;28;20033;-61
2023/01/18 00:59:58;;;;;;;9.55;2.83;;;;;;;;;;5074773;28;20029;-61
2023/01/18 01:02:24;;;;;;;9.02;3.10;;;;;;;;;;5074857;28;20381;-60
2023/01/18 01:07:35;;;;;;;11.05;3.03;;;;;;;;;;5074269;28;20029;-60
2023/01/18 01:10:07;;;;;;;5.00;2.65;;;;;;;;;;5074680;28;20039;-60
2023/01/18 01:26:18;;;;;;;5.70;2.45;;;;;;;;;;5074398;28;20417;-60
2023/01/18 01:28:45;;;;;;;12.15;2.72;;;;;;;;;;5071342;28;20105;-61
2023/01/18 01:31:13;;;;;;;8.35;2.90;;;;;;;;;;5054315;28;20032;-61
2023/01/18 01:33:39;;;;;;;11.88;3.00;;;;;;;;;;5054181;28;20048;-61
2023/01/18 01:36:13;;;;;;;7.00;2.75;;;;;;;;;;5053603;28;20045;-60
2023/01/18 01:38:40;;;;;;;4.82;2.05;;;;;;;;;;5053878;28;20136;-61
2023/01/18 01:41:25;;;;;;;9.20;2.35;;;;;;;;;;5054227;28;20057;-61
2023/01/18 01:43:55;;;;;;;5.68;1.83;;;;;;;;;;5054140;28;20078;-60
2023/01/18 01:46:27;;;;;;;8.93;1.95;;;;;;;;;;5053877;28;20060;-61
2023/01/18 01:48:58;;;;;;;5.77;1.40;;;;;;;;;;5073214;28;20477;-61
2023/01/18 01:51:24;;;;;;;5.53;1.67;;;;;;;;;;5073343;28;20029;-61
2023/01/18 01:53:50;;;;;;;4.80;1.20;;;;;;;;;;5073934;28;20103;-61
2023/01/18 01:56:18;;;;;;;8.55;2.05;;;;;;;;;;5073648;28;20024;-61
2023/01/18 01:58:45;;;;;;;6.70;2.30;;;;;;;;;;5073474;28;20459;-61
2023/01/18 02:01:11;;;;;;;19.10;1.58;;;;;;;;;;5073760;28;20028;-61
2023/01/18 02:03:41;;;;;;;15.82;1.73;;;;;;;;;;5073701;28;20404;-60
2023/01/18 02:06:30;;;;;;;6.10;1.23;;;;;;;;;;5073057;28;20521;-61
2023/01/18 02:09:01;;;;;;;8.15;1.30;;;;;;;;;;5073757;28;20032;-61
2023/01/18 02:11:28;;;;;;;7.30;1.38;;;;;;;;;;5073510;28;20035;-61
2023/01/18 02:13:55;;;;;;;5.40;1.02;;;;;;;;;;5073371;28;20024;-60
2023/01/18 02:16:34;;;;;;;5.40;1.20;;;;;;;;;;5073531;28;20086;-61
2023/01/18 02:19:19;;;;;;;4.53;1.10;;;;;;;;;;5073254;28;20039;-61
2023/01/18 02:21:59;;;;;;;1.00;0.52;;;;;;;;;;5073154;28;20052;-61
2023/01/18 02:24:44;;;;;;;6.18;1.50;;;;;;;;;;5073058;28;20032;-61
2023/01/18 02:27:25;;;;;;;8.73;1.00;;;;;;;;;;5073033;28;20033;-61
2023/01/18 02:30:17;;;;;;;3.83;1.17;;;;;;;;;;5073029;28;20161;-60
2023/01/18 02:33:05;;;;;;;8.88;1.10;;;;;;;;;;5057060;28;20040;-61
2023/01/18 02:35:31;;;;;;;2.13;1.00;;;;;;;;;;5072526;28;20401;-61
2023/01/18 02:37:57;;;;;;;7.03;0.98;;;;;;;;;;5072950;28;20056;-61
2023/01/18 02:40:29;;;;;;;5.07;1.10;;;;;;;;;;5073073;28;20028;-61
2023/01/18 02:48:48;;;;;;;5.00;1.08;;;;;;;;;;4990633;28;20034;-61
2023/01/18 02:51:14;;;;;;;1.15;0.70;;;;;;;;;;4991490;28;20451;-61
2023/01/18 02:53:42;;;;;;;6.55;1.35;;;;;;;;;;4991282;28;20184;-61
2023/01/18 02:56:10;;;;;;;4.82;0.85;;;;;;;;;;4991398;28;20061;-61
2023/01/18 02:58:48;;;;;;;5.53;0.85;;;;;;;;;;4991052;28;20503;-61
2023/01/18 03:01:25;;;;;;;6.40;1.20;;;;;;;;;;4991237;28;20042;-61
2023/01/18 03:03:54;;;;;;;9.00;1.48;;;;;;;;;;4990819;28;20393;-61
2023/01/18 03:06:23;;;;;;;11.82;1.65;;;;;;;;;;4990873;28;20082;-61
2023/01/18 03:08:51;;;;;;;4.93;1.40;;;;;;;;;;4990309;28;20031;-61
2023/01/18 03:11:25;;;;;;;6.50;0.82;;;;;;;;;;4991151;28;20026;-61
2023/01/18 03:13:58;;;;;;;6.82;1.02;;;;;;;;;;4990930;28;20604;-61
2023/01/18 03:16:59;;;;;;;7.57;1.15;;;;;;;;;;4991115;28;20163;-61
2023/01/18 03:23:36;;;;;;;7.18;1.77;;;;;;;;;;5072426;28;20419;-61
2023/01/18 03:25:08;;;;;;;7.93;1.52;;;;;;;;;;5072016;28;20036;-61
2023/01/18 03:35:50;;;;;;;4.93;0.88;;;;;;;;;;5064001;28;20059;-61
2023/01/18 03:38:17;;;;;;;4.78;0.82;;;;;;;;;;5092655;28;20036;-61
2023/01/18 03:40:44;;;;;;;3.50;0.90;;;;;;;;;;5086522;28;20457;-61
2023/01/18 03:43:14;;;;;;;3.50;1.00;;;;;;;;;;5088447;28;20036;-61
2023/01/18 03:45:44;;;;;;;10.45;1.45;;;;;;;;;;5092405;28;20078;-61
2023/01/18 03:48:11;;;;;;;3.22;1.08;;;;;;;;;;5078125;28;20033;-61
2023/01/18 03:50:49;;;;;;;4.82;0.80;;;;;;;;;;5071873;28;20032;-61
2023/01/18 03:53:37;;;;;;;3.88;1.13;;;;;;;;;;5071977;28;20025;-61
2023/01/18 03:56:12;;;;;;;4.47;0.95;;;;;;;;;;5071948;28;20024;-61
2023/01/18 03:58:41;;;;;;;4.95;1.17;;;;;;;;;;5071846;28;20024;-61
2023/01/18 04:01:07;;;;;;;4.93;1.27;;;;;;;;;;5071673;28;20031;-60
2023/01/18 04:03:33;;;;;;;7.18;1.17;;;;;;;;;;5071801;28;20060;-60
2023/01/18 04:06:05;;;;;;;9.40;1.05;;;;;;;;;;5071743;28;20074;-60
2023/01/18 04:08:31;;;;;;;2.20;0.85;;;;;;;;;;5071989;28;20060;-61
2023/01/18 04:10:57;;;;;;;5.60;1.10;;;;;;;;;;5071926;28;20081;-61
2023/01/18 04:13:23;;;;;;;4.05;0.90;;;;;;;;;;5071654;28;20075;-61
2023/01/18 04:15:49;;;;;;;3.28;0.90;;;;;;;;;;5071342;28;20031;-61
2023/01/18 04:18:16;;;;;;;9.18;1.20;;;;;;;;;;5071873;28;20024;-61
2023/01/18 04:20:42;;;;;;;4.63;1.20;;;;;;;;;;5073591;28;20085;-61
2023/01/18 04:23:08;;;;;;;9.07;1.42;;;;;;;;;;5073708;28;20036;-61
2023/01/18 04:25:34;;;;;;;3.03;1.10;;;;;;;;;;5076400;28;20032;-61
2023/01/18 04:28:00;;;;;;;9.60;1.10;;;;;;;;;;5074893;28;20108;-61
2023/01/18 04:30:26;;;;;;;4.35;1.50;;;;;;;;;;5073375;28;20024;-61
2023/01/18 04:32:52;;;;;;;7.65;1.00;;;;;;;;;;5073422;28;20106;-61
2023/01/18 04:35:18;;;;;;;4.65;1.10;;;;;;;;;;5073810;28;20394;-61
2023/01/18 04:37:50;;;;;;;5.88;1.83;;;;;;;;;;5073924;28;20056;-61
2023/01/18 04:40:16;;;;;;;9.38;1.15;;;;;;;;;;5075096;28;20036;-61
2023/01/18 04:42:42;;;;;;;9.82;1.40;;;;;;;;;;5074941;28;20090;-61
2023/01/18 04:45:12;;;;;;;5.70;1.25;;;;;;;;;;5074851;28;20379;-61
2023/01/18 04:47:38;;;;;;;7.72;1.20;;;;;;;;;;5074968;28;20430;-61
2023/01/18 04:50:06;;;;;;;14.48;1.30;;;;;;;;;;5075217;28;20021;-61
2023/01/18 04:52:32;;;;;;;12.93;1.05;;;;;;;;;;5074959;28;20101;-61
2023/01/18 04:54:58;;;;;;;7.20;1.13;;;;;;;;;;5075114;28;20036;-61
2023/01/18 04:57:24;;;;;;;5.35;1.02;;;;;;;;;;5073169;28;20031;-61
2023/01/18 04:59:50;;;;;;;2.45;0.90;;;;;;;;;;5072841;28;20549;-61
2023/01/18 05:02:17;;;;;;;4.80;1.10;;;;;;;;;;5073490;28;20059;-61
2023/01/18 05:04:43;;;;;;;11.07;1.25;;;;;;;;;;5073256;28;20097;-61
2023/01/18 05:07:09;;;;;;;7.00;1.20;;;;;;;;;;5072880;28;20589;-61
2023/01/18 05:09:35;;;;;;;8.57;1.10;;;;;;;;;;5073355;28;20009;-61
2023/01/18 05:12:01;;;;;;;5.40;1.10;;;;;;;;;;5073080;28;20020;-61
2023/01/18 05:14:27;;;;;;;8.73;1.02;;;;;;;;;;5072527;28;20055;-61
2023/01/18 05:16:53;;;;;;;11.13;1.20;;;;;;;;;;5073180;28;20024;-61
2023/01/18 05:19:20;;;;;;;5.78;1.20;;;;;;;;;;5073149;28;20028;-61
2023/01/18 05:21:46;;;;;;;6.85;1.17;;;;;;;;;;5069725;28;20032;-61
2023/01/18 05:24:12;;;;;;;6.68;0.95;;;;;;;;;;5072304;28;20350;-61
2023/01/18 05:26:38;;;;;;;9.10;1.00;;;;;;;;;;5072279;28;20525;-61
2023/01/18 05:29:05;;;;;;;8.93;1.15;;;;;;;;;;5070046;28;20128;-61
2023/01/18 05:31:31;;;;;;;3.53;0.80;;;;;;;;;;5071268;28;20025;-61
2023/01/18 05:33:57;;;;;;;6.70;0.90;;;;;;;;;;5072908;28;20039;-60
2023/01/18 05:36:24;;;;;;;6.82;0.98;;;;;;;;;;5074500;28;20051;-61
2023/01/18 05:38:50;;;;;;;4.22;1.20;;;;;;;;;;5073266;28;20090;-61
2023/01/18 05:41:16;;;;;;;7.80;1.13;;;;;;;;;;5073712;28;20029;-61
2023/01/18 05:43:42;;;;;;;5.63;1.02;;;;;;;;;;5070475;28;20021;-61
2023/01/18 05:46:08;;;;;;;2.65;1.00;;;;;;;;;;5062828;28;20024;-61
2023/01/18 05:48:34;;;;;;;2.35;0.98;;;;;;;;;;5056985;28;20049;-61
2023/01/18 05:51:00;;;;;;;4.72;0.85;;;;;;;;;;5069934;28;20028;-61
2023/01/18 05:53:26;;;;;;;1.58;0.70;;;;;;;;;;5072074;28;20021;-61
2023/01/18 05:56:04;;;;;;;5.07;0.75;;;;;;;;;;5081349;28;20028;-61
2023/01/18 05:58:30;;;;;;;4.13;1.08;;;;;;;;;;5072012;28;20031;-61
2023/01/18 06:00:57;;;;;;;1.30;0.88;;;;;;;;;;5072464;28;20029;-61
2023/01/18 06:03:24;;;;;;;1.90;0.80;;;;;;;;;;5071732;28;20024;-61
2023/01/18 06:05:50;;;;;;;4.40;0.90;;;;;;;;;;5071744;28;20403;-61
2023/01/18 06:08:17;;;;;;;5.63;2.55;;;;;;;;;;5071108;28;20016;-60
2023/01/18 06:10:43;;;;;;;9.85;5.75;;;;;;;;;;5076350;28;20434;-61
2023/01/18 06:13:10;;;;;;;14.32;8.15;;;;;;;;;;5068451;28;20505;-61
2023/01/18 06:15:36;;;;;;;9.50;3.38;;;;;;;;;;5073217;28;20025;-61
2023/01/18 06:18:02;;;;;;;2.25;1.30;;;;;;;;;;5070833;28;20020;-61
2023/01/18 06:20:29;;;;;;;3.03;0.90;;;;;;;;;;5073027;28;20370;-61
2023/01/18 06:22:58;;;;;;;3.22;0.90;;;;;;;;;;5064971;28;20033;-61
2023/01/18 06:25:25;;;;;;;2.60;1.23;;;;;;;;;;5069455;28;20020;-61
2023/01/18 06:27:51;;;;;;;6.40;1.58;;;;;;;;;;5068333;28;20032;-61
2023/01/18 06:30:17;;;;;;;4.40;2.15;;;;;;;;;;5070323;28;20055;-61
2023/01/18 06:32:43;;;;;;;5.70;2.10;;;;;;;;;;5069294;28;20021;-61
2023/01/18 06:35:09;;;;;;;3.65;1.75;;;;;;;;;;5071971;28;20028;-60
2023/01/18 06:37:36;;;;;;;6.75;2.78;;;;;;;;;;5076076;28;20028;-61
2023/01/18 06:40:02;;;;;;;5.28;1.50;;;;;;;;;;5063822;28;20039;-62
2023/01/18 06:42:28;;;;;;;2.38;1.10;;;;;;;;;;5076454;28;20035;-61
2023/01/18 06:44:54;;;;;;;2.80;1.40;;;;;;;;;;5061559;28;20060;-61
2023/01/18 06:47:20;;;;;;;2.10;1.10;;;;;;;;;;5068894;28;20028;-61
2023/01/18 06:49:47;;;;;;;4.60;1.17;;;;;;;;;;5071867;28;20055;-61
2023/01/18 06:52:13;;;;;;;2.30;1.55;;;;;;;;;;5071550;28;20020;-61
2023/01/18 06:54:39;;;;;;;2.53;1.02;;;;;;;;;;5070633;28;20562;-61
2023/01/18 06:57:05;;;;;;;1.35;1.02;;;;;;;;;;5076285;28;20032;-61
2023/01/18 06:59:31;;;;;;;3.72;1.00;;;;;;;;;;5069601;28;20028;-61
2023/01/18 07:01:57;;;;;;;1.90;0.73;;;;;;;;;;5071426;28;20073;-61
2023/01/18 07:04:24;;;;;;;2.05;0.70;;;;;;;;;;5073573;28;20063;-61
2023/01/18 07:06:50;;;;;;;1.67;0.80;;;;;;;;;;5075724;28;20046;-61
2023/01/18 07:09:16;;;;;;;4.53;1.00;;;;;;;;;;5058940;28;20025;-61
2023/01/18 07:11:42;;;;;;;1.75;1.00;;;;;;;;;;5060298;28;20458;-61
2023/01/18 07:14:10;;;;;;;1.70;0.80;;;;;;;;;;5068374;28;20025;-61
2023/01/18 07:16:36;;;;;;;2.25;1.00;;;;;;;;;;5061787;28;20044;-61
2023/01/18 07:19:03;;;;;;;1.20;0.82;;;;;;;;;;5067362;28;20369;-61
2023/01/18 07:21:29;;;;;;;3.10;1.08;;;;;;;;;;5068606;28;20031;-61
2023/01/18 07:23:56;;;;;;;2.10;0.80;;;;;;;;;;5064474;28;20136;-62
2023/01/18 07:26:22;;;;;;;0.93;0.60;;;;;;;;;;5058608;28;20075;-61
2023/01/18 07:28:49;;;;;;;0.95;0.77;;;;;;;;;;5067757;28;20031;-61
2023/01/18 07:31:15;;;;;;;2.53;0.77;;;;;;;;;;5074119;28;20024;-61
2023/01/18 07:33:41;;;;;;;3.20;0.85;;;;;;;;;;5068845;28;20032;-61
2023/01/18 07:36:11;;;;;;;5.25;1.10;;;;;;;;;;5064516;28;20059;-61
2023/01/18 07:38:38;;;;;;;2.83;1.00;;;;;;;;;;5069817;28;20074;-61
2023/01/18 07:41:07;;;;;;;1.10;0.82;;;;;;;;;;5059935;28;20037;-61
2023/01/18 07:43:33;;;;;;;3.45;1.33;;;;;;;;;;5063855;28;20081;-61
2023/01/18 07:46:00;;;;;;;3.45;1.10;;;;;;;;;;5067803;28;20063;-61
2023/01/18 07:48:27;;;;;;;3.92;1.50;;;;;;;;;;5068914;28;20028;-61
2023/01/18 07:50:54;;;;;;;5.80;1.42;;;;;;;;;;5071142;28;20045;-64
2023/01/18 07:53:20;;;;;;;2.88;1.45;;;;;;;;;;5064401;28;20024;-61
2023/01/18 07:55:47;;;;;;;6.60;2.22;;;;;;;;;;5068715;28;20016;-60
2023/01/18 07:58:13;;;;;;;16.15;6.00;;;;;;;;;;5070416;28;20490;-61
2023/01/18 08:00:39;;;;;;;6.75;2.10;;;;;;;;;;5070727;28;20016;-61
2023/01/18 08:03:05;;;;;;;4.50;1.50;;;;;;;;;;5070154;28;20025;-61
2023/01/18 08:05:31;;;;;;;4.72;2.28;;;;;;;;;;5073736;28;20036;-61
2023/01/18 08:07:58;;;;;;;37.97;12.02;;;;;;;;;;5068569;28;20389;-63
2023/01/18 08:10:26;;;;;;;8.07;3.25;;;;;;;;;;5069564;28;20481;-63
2023/01/18 08:12:52;;;;;;;5.47;2.97;;;;;;;;;;5071103;28;20498;-63
2023/01/18 08:15:18;;;;;;;7.03;3.08;;;;;;;;;;5067078;28;20036;-63
2023/01/18 08:17:44;;;;;;;9.75;4.57;;;;;;;;;;5068838;28;20025;-63
2023/01/18 08:20:11;;;;;;;16.08;6.63;;;;;;;;;;5068786;28;20032;-63
2023/01/18 08:22:37;;;;;;;12.02;4.28;;;;;;;;;;5069648;28;20025;-66
2023/01/18 08:25:03;;;;;;;9.52;3.45;;;;;;;;;;5071138;28;20490;-62
2023/01/18 08:27:30;;;;;;;6.72;3.35;;;;;;;;;;5071859;28;20833;-63
2023/01/18 08:29:56;;;;;;;6.13;2.60;;;;;;;;;;5071625;28;20028;-62
2023/01/18 08:32:22;;;;;;;3.25;1.50;;;;;;;;;;5069616;28;20096;-62
2023/01/18 08:34:48;;;;;;;5.40;2.38;;;;;;;;;;5071921;28;20590;-63
2023/01/18 08:37:16;;;;;;;5.15;1.85;;;;;;;;;;5069839;28;20040;-62
2023/01/18 08:39:42;;;;;;;6.25;2.22;;;;;;;;;;5068288;28;20036;-62
2023/01/18 08:42:10;;;;;;;3.47;1.70;;;;;;;;;;5068693;28;20044;-62
2023/01/18 08:44:36;;;;;;;9.85;2.28;;;;;;;;;;5067159;28;20440;-62
2023/01/18 08:47:02;;;;;;;5.13;1.80;;;;;;;;;;5069261;28;20052;-62
2023/01/18 08:49:31;;;;;;;7.25;2.55;;;;;;;;;;5068693;28;20533;-62
2023/01/18 08:51:57;;;;;;;4.63;1.75;;;;;;;;;;5069389;28;20025;-62
2023/01/18 08:54:24;;;;;;;3.65;2.17;;;;;;;;;;5070950;28;20024;-62
2023/01/18 08:56:51;;;;;;;10.70;2.60;;;;;;;;;;5070328;28;20020;-62
2023/01/18 08:59:18;;;;;;;5.03;2.20;;;;;;;;;;5070815;28;20059;-62
2023/01/18 09:01:45;;;;;;;7.95;2.90;;;;;;;;;;5071534;28;20037;-62
2023/01/18 09:04:11;;;;;;;9.32;4.57;;;;;;;;;;5069263;28;20086;-62
2023/01/18 09:06:37;;;;;;;8.38;3.08;;;;;;;;;;5071253;28;20530;-62
2023/01/18 09:09:04;;;;;;;15.27;4.75;;;;;;;;;;5066715;28;20025;-62
2023/01/18 09:11:30;;;;;;;17.13;4.40;;;;;;;;;;5067624;28;20138;-62
2023/01/18 09:13:58;;;;;;;7.78;3.00;;;;;;;;;;5066797;28;21463;-62
2023/01/18 09:16:24;;;;;;;10.15;3.15;;;;;;;;;;5066843;28;20520;-62
2023/01/18 09:18:50;;;;;;;10.10;3.13;;;;;;;;;;5068182;28;20111;-62
2023/01/18 09:21:16;;;;;;;11.95;4.43;;;;;;;;;;5068598;28;20563;-62
2023/01/18 09:23:44;;;;;;;8.98;4.10;;;;;;;;;;5067742;28;20066;-62
2023/01/18 09:26:15;;;;;;;14.75;4.68;;;;;;;;;;5067272;28;20036;-62
2023/01/18 09:28:43;;;;;;;13.20;5.55;;;;;;;;;;5068265;28;20029;-62
2023/01/18 09:31:11;;;;;;;19.60;5.95;;;;;;;;;;5070216;28;20009;-62
2023/01/18 09:33:38;;;;;;;18.67;7.97;;;;;;;;;;5068229;28;20031;-62
2023/01/18 09:36:09;;;;;;;22.33;9.57;;;;;;;;;;5065592;28;20047;-61
2023/01/18 09:38:35;;;;;;;38.58;12.02;;;;;;;;;;5068466;28;20035;-62
2023/01/18 09:41:02;;;;;;;16.83;6.63;;;;;;;;;;5066438;28;20025;-61
2023/01/18 09:43:38;;;;;;;24.42;11.48;;;;;;;;;;5069698;28;20497;-62
2023/01/18 09:46:04;;;;;;;15.95;6.93;;;;;;;;;;5068504;28;20036;-62
2023/01/18 09:48:30;;;;;;;12.02;6.03;;;;;;;;;;5069021;28;20602;-62
2023/01/18 09:51:01;;;;;;;10.90;4.90;;;;;;;;;;5068294;28;20071;-62
2023/01/18 09:53:30;;;;;;;17.85;3.42;;;;;;;;;;5066915;28;20027;-62
2023/01/18 09:56:02;;;;;;;13.20;2.13;;;;;;;;;;5069249;28;20021;-62
2023/01/18 09:59:04;;;;;;;14.88;2.00;;;;;;;;;;5067170;28;20398;-62
2023/01/18 10:01:34;;;;;;;19.17;2.58;;;;;;;;;;5020747;28;20053;-62
2023/01/18 10:04:03;;;;;;;9.93;1.73;;;;;;;;;;5005922;28;20048;-62
2023/01/18 10:06:29;;;;;;;9.55;1.80;;;;;;;;;;5008876;28;20030;-62
2023/01/18 10:09:03;;;;;;;9.95;1.95;;;;;;;;;;5006790;28;20463;-63
2023/01/18 10:11:31;;;;;;;17.83;2.10;;;;;;;;;;5022342;28;20526;-62
2023/01/18 10:14:03;;;;;;;8.30;1.70;;;;;;;;;;5005281;28;20032;-62
2023/01/18 10:16:31;;;;;;;8.07;1.83;;;;;;;;;;5005820;28;20045;-62
2023/01/18 10:18:57;;;;;;;7.88;1.85;;;;;;;;;;5005890;28;20034;-62
2023/01/18 10:21:32;;;;;;;7.30;1.67;;;;;;;;;;5002745;28;20132;-62
2023/01/18 10:24:18;;;;;;;6.30;2.08;;;;;;;;;;5002839;28;20072;-62
2023/01/18 10:26:46;;;;;;;8.73;1.60;;;;;;;;;;5004292;28;20080;-62
2023/01/18 10:29:38;;;;;;;4.80;1.33;;;;;;;;;;5005870;28;20507;-62
2023/01/18 10:32:07;;;;;;;11.88;2.13;;;;;;;;;;5004508;28;20058;-62
2023/01/18 10:34:37;;;;;;;11.38;1.55;;;;;;;;;;5012423;28;20410;-62
2023/01/18 10:37:13;;;;;;;9.43;1.83;;;;;;;;;;5066265;28;20037;-62
2023/01/18 10:39:51;;;;;;;21.02;3.38;;;;;;;;;;5066679;28;20490;-62
2023/01/18 10:42:28;;;;;;;8.35;1.20;;;;;;;;;;5067333;28;20057;-62
2023/01/18 10:44:54;;;;;;;10.20;1.60;;;;;;;;;;5069436;28;20043;-62
2023/01/18 10:47:20;;;;;;;13.15;3.00;;;;;;;;;;5067010;28;20023;-62
2023/01/18 10:49:49;;;;;;;9.73;1.50;;;;;;;;;;5066399;28;20024;-62
2023/01/18 10:52:19;;;;;;;7.07;1.58;;;;;;;;;;5067039;28;20020;-62
2023/01/18 10:54:54;;;;;;;5.10;1.20;;;;;;;;;;5068499;28;20074;-62
2023/01/18 10:57:31;;;;;;;5.93;1.58;;;;;;;;;;5067454;28;20024;-62
2023/01/18 10:59:58;;;;;;;10.90;1.45;;;;;;;;;;5068017;28;20028;-62
2023/01/18 11:02:34;;;;;;;9.55;3.08;;;;;;;;;;5067073;28;20111;-62
2023/01/18 11:05:20;;;;;;;11.18;3.65;;;;;;;;;;5067568;28;20970;-62
2023/01/18 11:07:46;;;;;;;8.10;2.78;;;;;;;;;;5066816;28;20017;-62
2023/01/18 11:10:22;;;;;;;9.35;2.03;;;;;;;;;;5060311;28;20464;-62
2023/01/18 11:12:51;;;;;;;6.05;2.28;;;;;;;;;;5063169;28;20032;-61
2023/01/18 11:15:17;;;;;;;19.90;10.25;;;;;;;;;;5061798;28;20497;-62
2023/01/18 11:17:45;;;;;;;17.30;6.97;;;;;;;;;;5074412;28;20107;-62
2023/01/18 11:20:29;;;;;;;25.48;9.63;;;;;;;;;;5070989;28;20016;-61
2023/01/18 11:22:58;;;;;;;20.27;8.73;;;;;;;;;;5068703;28;20030;-61
2023/01/18 11:25:25;;;;;;;26.50;11.95;;;;;;;;;;5065915;28;20040;-62
2023/01/18 11:27:51;;;;;;;20.45;10.02;;;;;;;;;;5063481;28;20078;-62
2023/01/18 11:30:21;;;;;;;38.50;15.00;;;;;;;;;;5065384;28;20028;-62
2023/01/18 11:32:48;;;;;;;18.20;4.93;;;;;;;;;;5068914;28;20409;-62
2023/01/18 11:35:21;;;;;;;16.02;6.15;;;;;;;;;;5060671;28;20475;-61
2023/01/18 11:37:47;;;;;;;24.13;5.97;;;;;;;;;;5064647;28;20070;-62
2023/01/18 11:40:25;;;;;;;34.47;11.68;;;;;;;;;;5065785;28;20043;-62
2023/01/18 11:42:57;;;;;;;21.75;5.70;;;;;;;;;;5060982;28;20037;-61
2023/01/18 11:45:25;;;;;;;9.27;2.88;;;;;;;;;;5061625;28;20632;-62
2023/01/18 11:48:00;;;;;;;12.13;2.08;;;;;;;;;;5066535;28;20034;-62
2023/01/18 11:50:35;;;;;;;15.68;2.67;;;;;;;;;;5065292;28;20032;-61
2023/01/18 11:53:23;;;;;;;17.15;2.28;;;;;;;;;;5064317;28;20439;-61
2023/01/18 11:55:55;;;;;;;14.63;3.38;;;;;;;;;;5058617;28;20056;-61
2023/01/18 11:58:28;;;;;;;10.93;1.90;;;;;;;;;;5060519;28;20103;-61
2023/01/18 12:01:07;;;;;;;8.07;2.40;;;;;;;;;;5066927;28;20013;-62
2023/01/18 12:03:59;;;;;;;10.63;2.35;;;;;;;;;;5065525;28;20059;-61
2023/01/18 12:06:44;;;;;;;11.10;2.33;;;;;;;;;;5063036;28;20052;-62
2023/01/18 12:09:21;;;;;;;11.07;2.25;;;;;;;;;;5064004;28;20027;-62
2023/01/18 12:11:50;;;;;;;8.90;2.42;;;;;;;;;;5062994;28;20028;-62
2023/01/18 12:14:34;;;;;;;12.65;2.22;;;;;;;;;;5059397;28;20028;-62
2023/01/18 12:17:08;;;;;;;11.63;2.10;;;;;;;;;;5066253;28;20564;-62
2023/01/18 12:19:37;;;;;;;17.33;2.28;;;;;;;;;;5060466;28;20456;-62
2023/01/18 12:22:07;;;;;;;13.52;2.78;;;;;;;;;;5060132;28;20035;-62
2023/01/18 12:24:39;;;;;;;11.52;2.50;;;;;;;;;;5062105;28;20033;-62
2023/01/18 12:27:13;;;;;;;14.02;2.47;;;;;;;;;;5071916;28;20025;-62
2023/01/18 12:29:52;;;;;;;10.63;2.03;;;;;;;;;;5058382;28;20024;-62
2023/01/18 12:32:36;;;;;;;13.85;1.90;;;;;;;;;;5055956;28;20052;-61
2023/01/18 12:35:21;;;;;;;6.75;1.65;;;;;;;;;;5056655;28;20488;-61
2023/01/18 12:37:47;;;;;;;12.38;2.20;;;;;;;;;;5053984;28;20418;-62
2023/01/18 12:40:30;;;;;;;17.98;2.55;;;;;;;;;;5063659;28;20078;-61
2023/01/18 12:43:15;;;;;;;11.07;2.38;;;;;;;;;;5070422;28;20039;-61
2023/01/18 12:45:42;;;;;;;13.65;2.53;;;;;;;;;;5068533;28;20028;-61
2023/01/18 12:48:26;;;;;;;17.17;2.65;;;;;;;;;;5072133;28;20017;-61
2023/01/18 12:50:55;;;;;;;16.15;2.90;;;;;;;;;;5064174;28;20069;-61
2023/01/18 12:53:44;;;;;;;9.38;1.85;;;;;;;;;;5065952;28;20386;-61
2023/01/18 12:56:34;;;;;;;11.90;1.65;;;;;;;;;;5063684;28;20031;-62
2023/01/18 12:59:01;;;;;;;14.20;2.90;;;;;;;;;;5054098;28;20044;-61
2023/01/18 13:01:35;;;;;;;11.82;2.03;;;;;;;;;;5070689;28;20021;-61
2023/01/18 13:04:06;;;;;;;8.98;1.92;;;;;;;;;;5064250;28;20403;-61
2023/01/18 13:06:34;;;;;;;9.85;1.90;;;;;;;;;;5065769;28;20029;-61
2023/01/18 13:09:04;;;;;;;6.93;1.83;;;;;;;;;;5070325;28;20073;-61
2023/01/18 13:11:33;;;;;;;15.77;2.22;;;;;;;;;;5064431;28;20385;-61
2023/01/18 13:14:09;;;;;;;7.95;1.73;;;;;;;;;;5077214;28;20059;-61
2023/01/18 13:16:38;;;;;;;9.20;2.25;;;;;;;;;;5066482;28;20401;-61
2023/01/18 13:19:12;;;;;;;14.23;2.25;;;;;;;;;;5071499;28;20119;-61
2023/01/18 13:21:54;;;;;;;12.48;2.33;;;;;;;;;;5069496;28;20366;-62
2023/01/18 13:24:39;;;;;;;8.45;1.98;;;;;;;;;;5065910;28;20036;-62
2023/01/18 13:27:06;;;;;;;21.63;2.42;;;;;;;;;;5073644;28;20060;-62
2023/01/18 13:29:32;;;;;;;11.20;3.08;;;;;;;;;;5062252;28;20029;-61
2023/01/18 13:31:58;;;;;;;12.82;3.70;;;;;;;;;;5066384;28;20505;-62
2023/01/18 13:34:24;;;;;;;10.77;2.35;;;;;;;;;;5071810;28;20031;-62
2023/01/18 13:36:50;;;;;;;14.95;3.03;;;;;;;;;;5061509;28;20028;-62
2023/01/18 13:39:18;;;;;;;6.45;1.45;;;;;;;;;;5068073;28;20085;-61
2023/01/18 13:42:02;;;;;;;11.10;2.08;;;;;;;;;;5067877;28;20050;-61
2023/01/18 13:44:36;;;;;;;8.32;1.75;;;;;;;;;;5060843;28;20025;-62
2023/01/18 13:47:02;;;;;;;9.77;1.50;;;;;;;;;;5060193;28;20044;-61
2023/01/18 13:49:34;;;;;;;11.05;3.47;;;;;;;;;;5059305;28;20483;-61
2023/01/18 13:52:01;;;;;;;7.10;1.50;;;;;;;;;;5067580;28;20542;-61
2023/01/18 13:54:27;;;;;;;11.70;1.70;;;;;;;;;;5068066;28;20259;-61
2023/01/18 13:57:08;;;;;;;4.28;1.17;;;;;;;;;;5070747;28;20032;-62
2023/01/18 13:59:36;;;;;;;4.20;1.05;;;;;;;;;;5064015;28;20036;-62
2023/01/18 14:02:21;;;;;;;4.53;1.35;;;;;;;;;;5094941;28;20048;-62
2023/01/18 14:04:57;;;;;;;9.15;1.45;;;;;;;;;;5060327;28;20029;-62
2023/01/18 14:07:24;;;;;;;21.52;2.28;;;;;;;;;;5068089;28;20588;-61
2023/01/18 14:09:50;;;;;;;16.63;2.38;;;;;;;;;;5054662;28;20055;-61
2023/01/18 14:12:36;;;;;;;10.68;1.85;;;;;;;;;;5059318;28;20031;-61
2023/01/18 14:15:03;;;;;;;6.10;1.50;;;;;;;;;;5055716;28;20033;-61
2023/01/18 14:17:31;;;;;;;5.50;1.10;;;;;;;;;;5053164;28;20510;-61
2023/01/18 14:20:06;;;;;;;2.85;0.80;;;;;;;;;;5055352;28;20037;-61
2023/01/18 14:22:38;;;;;;;6.10;1.50;;;;;;;;;;5062174;28;20029;-61
2023/01/18 14:25:04;;;;;;;6.67;1.77;;;;;;;;;;5063832;28;20025;-61
2023/01/18 14:27:32;;;;;;;8.25;1.38;;;;;;;;;;5066402;28;20082;-61
2023/01/18 14:30:02;;;;;;;9.30;1.90;;;;;;;;;;5060468;28;20062;-62
2023/01/18 14:32:31;;;;;;;13.05;2.17;;;;;;;;;;5056904;28;20028;-61
2023/01/18 14:35:01;;;;;;;12.60;1.55;;;;;;;;;;5069386;28;20441;-62
2023/01/18 14:37:28;;;;;;;10.73;1.80;;;;;;;;;;5054865;28;20029;-62
2023/01/18 14:40:13;;;;;;;13.13;2.33;;;;;;;;;;5054991;28;20032;-62
2023/01/18 14:42:46;;;;;;;11.40;2.28;;;;;;;;;;5064639;28;20025;-61
2023/01/18 14:45:19;;;;;;;15.90;3.37;;;;;;;;;;5067164;28;20076;-62
2023/01/18 14:47:46;;;;;;;12.15;3.47;;;;;;;;;;5063457;28;20648;-62
2023/01/18 14:50:15;;;;;;;11.40;2.17;;;;;;;;;;5062073;28;20040;-62
2023/01/18 14:52:42;;;;;;;9.77;2.25;;;;;;;;;;5070599;28;20025;-62
2023/01/18 14:55:21;;;;;;;9.38;2.38;;;;;;;;;;5064048;28;20032;-61
2023/01/18 14:57:51;;;;;;;20.73;2.78;;;;;;;;;;5068026;28;20029;-61
2023/01/18 15:00:17;;;;;;;10.40;2.55;;;;;;;;;;5068693;28;20052;-62
2023/01/18 15:02:44;;;;;;;16.35;3.53;;;;;;;;;;5067791;28;20432;-61
2023/01/18 15:05:12;;;;;;;13.20;2.80;;;;;;;;;;5069287;28;20107;-62
2023/01/18 15:07:39;;;;;;;8.38;2.20;;;;;;;;;;5064979;28;20052;-62
2023/01/18 15:10:06;;;;;;;7.68;2.05;;;;;;;;;;5066637;28;20035;-62
2023/01/18 15:12:33;;;;;;;11.75;2.78;;;;;;;;;;5068190;28;20470;-62
2023/01/18 15:15:03;;;;;;;6.50;2.00;;;;;;;;;;5064886;28;20028;-62
2023/01/18 15:17:30;;;;;;;10.45;1.90;;;;;;;;;;5067946;28;20032;-61
2023/01/18 15:19:58;;;;;;;10.82;1.92;;;;;;;;;;5068615;28;20036;-62
2023/01/18 15:22:30;;;;;;;8.82;2.00;;;;;;;;;;5067687;28;20028;-62
2023/01/18 15:24:58;;;;;;;7.57;2.65;;;;;;;;;;5067504;28;20028;-62
2023/01/18 15:27:24;;;;;;;16.23;2.63;;;;;;;;;;5064553;28;20024;-62
2023/01/18 15:29:55;;;;;;;14.52;3.08;;;;;;;;;;5063304;28;20040;-62